sensor_id;sensor_type;location;lat;lon;timestamp;P1;durP1;ratioP1;P2;durP2;ratioP2
76636;SDS011;65532;52.124;5.480;2023-05-10T00:00:00;13.48;;;5.60;;
76636;SDS011;65532;52.124;5.480;2023-05-10T00:02:38;13.60;;;6.47;;
76636;SDS011;65532;52.124;5.480;2023-05-10T00:05:05;11.95;;;7.80;;
76636;SDS011;65532;52.124;5.480;2023-05-10T00:07:33;14.10;;;7.38;;
76636;SDS011;65532;52.124;5.480;2023-05-10T00:09:59;13.07;;;6.15;;
76636;SDS011;65532;52.124;5.480;2023-05-10T00:12:26;12.77;;;5.25;;
76636;SDS011;65532;52.124;5.480;2023-05-10T00:14:52;11.50;;;4.95;;
76636;SDS011;65532;52.124;5.480;2023-05-10T00:17:18;11.48;;;4.53;;
76636;SDS011;65532;52.124;5.480;2023-05-10T00:19:45;11.73;;;4.93;;
76636;SDS011;65532;52.124;5.480;2023-05-10T00:22:12;8.35;;;3.47;;
76636;SDS011;65532;52.124;5.480;2023-05-10T00:24:38;7.95;;;3.55;;
76636;SDS011;65532;52.124;5.480;2023-05-10T00:27:04;11.25;;;4.32;;
76636;SDS011;65532;52.124;5.480;2023-05-10T00:29:31;12.40;;;6.00;;
76636;SDS011;65532;52.124;5.480;2023-05-10T00:31:57;11.60;;;5.05;;
76636;SDS011;65532;52.124;5.480;2023-05-10T00:34:24;13.55;;;6.22;;
76636;SDS011;65532;52.124;5.480;2023-05-10T00:36:50;17.52;;;6.43;;
76636;SDS011;65532;52.124;5.480;2023-05-10T00:39:17;22.75;;;8.80;;
76636;SDS011;65532;52.124;5.480;2023-05-10T00:41:43;19.95;;;8.50;;
76636;SDS011;65532;52.124;5.480;2023-05-10T00:44:10;21.77;;;9.15;;
76636;SDS011;65532;52.124;5.480;2023-05-10T00:46:37;25.90;;;10.95;;
76636;SDS011;65532;52.124;5.480;2023-05-10T00:49:03;27.92;;;10.40;;
76636;SDS011;65532;52.124;5.480;2023-05-10T00:51:30;29.83;;;11.77;;
76636;SDS011;65532;52.124;5.480;2023-05-10T00:53:57;33.60;;;11.30;;
76636;SDS011;65532;52.124;5.480;2023-05-10T00:56:25;30.95;;;13.82;;
76636;SDS011;65532;52.124;5.480;2023-05-10T00:58:51;32.47;;;12.98;;
76636;SDS011;65532;52.124;5.480;2023-05-10T01:01:18;31.38;;;11.93;;
76636;SDS011;65532;52.124;5.480;2023-05-10T01:03:45;36.05;;;13.77;;
76636;SDS011;65532;52.124;5.480;2023-05-10T01:06:14;34.55;;;13.80;;
76636;SDS011;65532;52.124;5.480;2023-05-10T01:08:40;37.78;;;13.27;;
76636;SDS011;65532;52.124;5.480;2023-05-10T01:11:07;37.78;;;13.35;;
76636;SDS011;65532;52.124;5.480;2023-05-10T01:13:35;33.13;;;13.95;;
76636;SDS011;65532;52.124;5.480;2023-05-10T01:16:04;34.58;;;15.90;;
76636;SDS011;65532;52.124;5.480;2023-05-10T01:18:33;37.38;;;17.15;;
76636;SDS011;65532;52.124;5.480;2023-05-10T01:23:41;36.83;;;14.32;;
76636;SDS011;65532;52.124;5.480;2023-05-10T01:29:27;31.35;;;12.15;;
76636;SDS011;65532;52.124;5.480;2023-05-10T01:32:02;29.95;;;11.70;;
76636;SDS011;65532;52.124;5.480;2023-05-10T01:37:56;36.58;;;14.52;;
76636;SDS011;65532;52.124;5.480;2023-05-10T01:43:49;34.33;;;13.55;;
76636;SDS011;65532;52.124;5.480;2023-05-10T01:46:20;38.28;;;14.20;;
76636;SDS011;65532;52.124;5.480;2023-05-10T01:48:54;30.30;;;11.18;;
76636;SDS011;65532;52.124;5.480;2023-05-10T01:53:54;37.35;;;12.27;;
76636;SDS011;65532;52.124;5.480;2023-05-10T01:56:26;39.30;;;14.10;;
76636;SDS011;65532;52.124;5.480;2023-05-10T01:58:55;36.97;;;13.30;;
76636;SDS011;65532;52.124;5.480;2023-05-10T02:01:23;29.67;;;11.25;;
76636;SDS011;65532;52.124;5.480;2023-05-10T02:03:52;34.00;;;13.65;;
76636;SDS011;65532;52.124;5.480;2023-05-10T02:06:20;36.97;;;12.35;;
76636;SDS011;65532;52.124;5.480;2023-05-10T02:08:49;41.45;;;17.02;;
76636;SDS011;65532;52.124;5.480;2023-05-10T02:11:17;39.58;;;14.80;;
76636;SDS011;65532;52.124;5.480;2023-05-10T02:13:48;35.45;;;12.57;;
76636;SDS011;65532;52.124;5.480;2023-05-10T02:16:16;34.20;;;13.95;;
76636;SDS011;65532;52.124;5.480;2023-05-10T02:18:44;37.47;;;14.50;;
76636;SDS011;65532;52.124;5.480;2023-05-10T02:21:13;32.15;;;12.80;;
76636;SDS011;65532;52.124;5.480;2023-05-10T02:23:42;36.13;;;12.38;;
76636;SDS011;65532;52.124;5.480;2023-05-10T02:26:09;31.95;;;12.43;;
76636;SDS011;65532;52.124;5.480;2023-05-10T02:28:38;36.13;;;14.07;;
76636;SDS011;65532;52.124;5.480;2023-05-10T02:31:06;33.75;;;12.98;;
76636;SDS011;65532;52.124;5.480;2023-05-10T02:33:33;36.75;;;14.02;;
76636;SDS011;65532;52.124;5.480;2023-05-10T02:36:00;33.13;;;12.77;;
76636;SDS011;65532;52.124;5.480;2023-05-10T02:38:28;31.50;;;11.88;;
76636;SDS011;65532;52.124;5.480;2023-05-10T02:40:57;36.22;;;13.10;;
76636;SDS011;65532;52.124;5.480;2023-05-10T02:43:25;34.08;;;12.85;;
76636;SDS011;65532;52.124;5.480;2023-05-10T02:45:52;35.63;;;13.90;;
76636;SDS011;65532;52.124;5.480;2023-05-10T02:48:18;37.38;;;13.65;;
76636;SDS011;65532;52.124;5.480;2023-05-10T02:50:45;33.17;;;12.90;;
76636;SDS011;65532;52.124;5.480;2023-05-10T02:53:22;42.97;;;15.10;;
76636;SDS011;65532;52.124;5.480;2023-05-10T02:55:52;33.63;;;13.80;;
76636;SDS011;65532;52.124;5.480;2023-05-10T02:58:23;41.45;;;13.20;;
76636;SDS011;65532;52.124;5.480;2023-05-10T03:00:50;38.85;;;13.52;;
76636;SDS011;65532;52.124;5.480;2023-05-10T03:03:16;34.70;;;11.98;;
76636;SDS011;65532;52.124;5.480;2023-05-10T03:05:42;40.90;;;14.27;;
76636;SDS011;65532;52.124;5.480;2023-05-10T03:08:09;36.90;;;13.00;;
76636;SDS011;65532;52.124;5.480;2023-05-10T03:10:38;42.95;;;16.45;;
76636;SDS011;65532;52.124;5.480;2023-05-10T03:16:34;40.05;;;14.18;;
76636;SDS011;65532;52.124;5.480;2023-05-10T03:21:53;45.63;;;16.25;;
76636;SDS011;65532;52.124;5.480;2023-05-10T03:24:29;43.13;;;13.70;;
76636;SDS011;65532;52.124;5.480;2023-05-10T03:26:58;54.70;;;17.52;;
76636;SDS011;65532;52.124;5.480;2023-05-10T03:31:55;46.63;;;15.02;;
76636;SDS011;65532;52.124;5.480;2023-05-10T03:34:26;42.95;;;16.15;;
76636;SDS011;65532;52.124;5.480;2023-05-10T03:36:56;45.13;;;16.50;;
76636;SDS011;65532;52.124;5.480;2023-05-10T03:39:25;43.75;;;16.77;;
76636;SDS011;65532;52.124;5.480;2023-05-10T03:41:55;43.30;;;15.23;;
76636;SDS011;65532;52.124;5.480;2023-05-10T03:44:22;47.55;;;15.88;;
76636;SDS011;65532;52.124;5.480;2023-05-10T03:46:48;46.65;;;15.13;;
76636;SDS011;65532;52.124;5.480;2023-05-10T03:49:15;48.83;;;13.68;;
76636;SDS011;65532;52.124;5.480;2023-05-10T03:51:42;41.20;;;13.95;;
76636;SDS011;65532;52.124;5.480;2023-05-10T03:54:09;51.88;;;14.57;;
76636;SDS011;65532;52.124;5.480;2023-05-10T03:56:35;48.65;;;14.27;;
76636;SDS011;65532;52.124;5.480;2023-05-10T03:59:02;43.75;;;16.80;;
76636;SDS011;65532;52.124;5.480;2023-05-10T04:01:33;49.75;;;14.93;;
76636;SDS011;65532;52.124;5.480;2023-05-10T04:04:00;51.55;;;16.02;;
76636;SDS011;65532;52.124;5.480;2023-05-10T04:06:29;52.45;;;14.73;;
76636;SDS011;65532;52.124;5.480;2023-05-10T04:08:57;51.58;;;16.38;;
76636;SDS011;65532;52.124;5.480;2023-05-10T04:11:25;55.35;;;16.85;;
76636;SDS011;65532;52.124;5.480;2023-05-10T04:13:52;35.92;;;14.57;;
76636;SDS011;65532;52.124;5.480;2023-05-10T04:16:19;50.45;;;14.75;;
76636;SDS011;65532;52.124;5.480;2023-05-10T04:18:45;48.65;;;14.07;;
76636;SDS011;65532;52.124;5.480;2023-05-10T04:21:12;45.78;;;14.10;;
76636;SDS011;65532;52.124;5.480;2023-05-10T04:23:39;39.85;;;14.95;;
76636;SDS011;65532;52.124;5.480;2023-05-10T04:26:06;39.10;;;14.75;;
76636;SDS011;65532;52.124;5.480;2023-05-10T04:28:33;37.45;;;12.45;;
76636;SDS011;65532;52.124;5.480;2023-05-10T04:31:03;43.17;;;14.00;;
76636;SDS011;65532;52.124;5.480;2023-05-10T04:33:30;47.65;;;13.02;;
76636;SDS011;65532;52.124;5.480;2023-05-10T04:35:57;42.05;;;12.10;;
76636;SDS011;65532;52.124;5.480;2023-05-10T04:38:24;43.60;;;12.90;;
76636;SDS011;65532;52.124;5.480;2023-05-10T04:40:50;45.88;;;12.70;;
76636;SDS011;65532;52.124;5.480;2023-05-10T04:43:17;43.00;;;13.60;;
76636;SDS011;65532;52.124;5.480;2023-05-10T04:45:43;48.15;;;14.82;;
76636;SDS011;65532;52.124;5.480;2023-05-10T04:48:10;39.35;;;12.90;;
76636;SDS011;65532;52.124;5.480;2023-05-10T04:50:37;49.88;;;16.40;;
76636;SDS011;65532;52.124;5.480;2023-05-10T04:53:04;48.97;;;14.90;;
76636;SDS011;65532;52.124;5.480;2023-05-10T04:55:30;54.70;;;15.70;;
76636;SDS011;65532;52.124;5.480;2023-05-10T04:57:57;38.90;;;13.15;;
76636;SDS011;65532;52.124;5.480;2023-05-10T05:00:25;39.65;;;14.82;;
76636;SDS011;65532;52.124;5.480;2023-05-10T05:02:51;44.97;;;14.80;;
76636;SDS011;65532;52.124;5.480;2023-05-10T05:05:18;43.67;;;13.50;;
76636;SDS011;65532;52.124;5.480;2023-05-10T05:07:44;46.92;;;14.93;;
76636;SDS011;65532;52.124;5.480;2023-05-10T05:10:11;42.17;;;14.77;;
76636;SDS011;65532;52.124;5.480;2023-05-10T05:12:37;50.10;;;13.68;;
76636;SDS011;65532;52.124;5.480;2023-05-10T05:15:04;46.65;;;14.90;;
76636;SDS011;65532;52.124;5.480;2023-05-10T05:17:34;45.08;;;14.88;;
76636;SDS011;65532;52.124;5.480;2023-05-10T05:20:00;45.28;;;16.02;;
76636;SDS011;65532;52.124;5.480;2023-05-10T05:22:27;45.75;;;13.40;;
76636;SDS011;65532;52.124;5.480;2023-05-10T05:24:54;46.97;;;14.95;;
76636;SDS011;65532;52.124;5.480;2023-05-10T05:27:21;48.63;;;15.30;;
76636;SDS011;65532;52.124;5.480;2023-05-10T05:29:50;47.45;;;14.38;;
76636;SDS011;65532;52.124;5.480;2023-05-10T05:32:18;48.45;;;16.55;;
76636;SDS011;65532;52.124;5.480;2023-05-10T05:34:45;41.47;;;14.05;;
76636;SDS011;65532;52.124;5.480;2023-05-10T05:37:12;57.05;;;14.93;;
76636;SDS011;65532;52.124;5.480;2023-05-10T05:39:43;48.05;;;15.25;;
76636;SDS011;65532;52.124;5.480;2023-05-10T05:42:10;53.72;;;15.40;;
76636;SDS011;65532;52.124;5.480;2023-05-10T05:44:37;44.13;;;14.00;;
76636;SDS011;65532;52.124;5.480;2023-05-10T05:47:04;49.55;;;15.32;;
76636;SDS011;65532;52.124;5.480;2023-05-10T05:49:32;47.85;;;15.35;;
76636;SDS011;65532;52.124;5.480;2023-05-10T05:52:02;49.42;;;15.48;;
76636;SDS011;65532;52.124;5.480;2023-05-10T05:54:29;51.33;;;15.68;;
76636;SDS011;65532;52.124;5.480;2023-05-10T05:56:57;45.65;;;14.68;;
76636;SDS011;65532;52.124;5.480;2023-05-10T05:59:26;42.95;;;15.93;;
76636;SDS011;65532;52.124;5.480;2023-05-10T06:01:53;53.83;;;17.73;;
76636;SDS011;65532;52.124;5.480;2023-05-10T06:04:20;49.78;;;15.63;;
76636;SDS011;65532;52.124;5.480;2023-05-10T06:06:46;53.85;;;15.95;;
76636;SDS011;65532;52.124;5.480;2023-05-10T06:09:13;48.50;;;15.18;;
76636;SDS011;65532;52.124;5.480;2023-05-10T06:11:39;50.78;;;16.00;;
76636;SDS011;65532;52.124;5.480;2023-05-10T06:14:06;47.65;;;14.98;;
76636;SDS011;65532;52.124;5.480;2023-05-10T06:16:34;43.83;;;13.68;;
76636;SDS011;65532;52.124;5.480;2023-05-10T06:19:01;44.15;;;14.27;;
76636;SDS011;65532;52.124;5.480;2023-05-10T06:21:28;40.50;;;14.82;;
76636;SDS011;65532;52.124;5.480;2023-05-10T06:23:56;35.80;;;14.40;;
76636;SDS011;65532;52.124;5.480;2023-05-10T06:26:22;36.10;;;13.90;;
76636;SDS011;65532;52.124;5.480;2023-05-10T06:28:49;32.60;;;10.77;;
76636;SDS011;65532;52.124;5.480;2023-05-10T06:31:15;40.92;;;12.63;;
76636;SDS011;65532;52.124;5.480;2023-05-10T06:33:42;39.72;;;13.55;;
76636;SDS011;65532;52.124;5.480;2023-05-10T06:36:08;39.63;;;13.82;;
76636;SDS011;65532;52.124;5.480;2023-05-10T06:38:35;38.83;;;12.80;;
76636;SDS011;65532;52.124;5.480;2023-05-10T06:41:01;35.88;;;15.15;;
76636;SDS011;65532;52.124;5.480;2023-05-10T06:43:28;36.47;;;13.10;;
76636;SDS011;65532;52.124;5.480;2023-05-10T06:45:55;38.00;;;11.70;;
76636;SDS011;65532;52.124;5.480;2023-05-10T06:48:22;29.10;;;11.32;;
76636;SDS011;65532;52.124;5.480;2023-05-10T06:50:48;32.72;;;11.35;;
76636;SDS011;65532;52.124;5.480;2023-05-10T06:53:15;29.42;;;11.02;;
76636;SDS011;65532;52.124;5.480;2023-05-10T06:55:41;26.23;;;10.07;;
76636;SDS011;65532;52.124;5.480;2023-05-10T06:58:07;27.73;;;9.73;;
76636;SDS011;65532;52.124;5.480;2023-05-10T07:00:34;28.35;;;10.52;;
76636;SDS011;65532;52.124;5.480;2023-05-10T07:03:00;29.02;;;9.25;;
76636;SDS011;65532;52.124;5.480;2023-05-10T07:05:27;28.23;;;9.48;;
76636;SDS011;65532;52.124;5.480;2023-05-10T07:07:54;24.30;;;8.57;;
76636;SDS011;65532;52.124;5.480;2023-05-10T07:10:20;25.42;;;9.48;;
76636;SDS011;65532;52.124;5.480;2023-05-10T07:12:47;23.15;;;8.15;;
76636;SDS011;65532;52.124;5.480;2023-05-10T07:15:13;17.38;;;8.02;;
76636;SDS011;65532;52.124;5.480;2023-05-10T07:17:42;20.42;;;6.93;;
76636;SDS011;65532;52.124;5.480;2023-05-10T07:20:11;17.85;;;7.25;;
76636;SDS011;65532;52.124;5.480;2023-05-10T07:22:38;18.77;;;6.53;;
76636;SDS011;65532;52.124;5.480;2023-05-10T07:25:04;15.43;;;6.80;;
76636;SDS011;65532;52.124;5.480;2023-05-10T07:27:31;14.13;;;5.38;;
76636;SDS011;65532;52.124;5.480;2023-05-10T07:29:58;14.07;;;5.30;;
76636;SDS011;65532;52.124;5.480;2023-05-10T07:32:25;13.85;;;6.30;;
76636;SDS011;65532;52.124;5.480;2023-05-10T07:34:52;13.82;;;4.65;;
76636;SDS011;65532;52.124;5.480;2023-05-10T07:37:18;16.63;;;5.32;;
76636;SDS011;65532;52.124;5.480;2023-05-10T07:39:45;12.93;;;6.30;;
76636;SDS011;65532;52.124;5.480;2023-05-10T07:42:11;16.23;;;6.30;;
76636;SDS011;65532;52.124;5.480;2023-05-10T07:44:38;13.77;;;4.50;;
76636;SDS011;65532;52.124;5.480;2023-05-10T07:47:04;12.73;;;5.22;;
76636;SDS011;65532;52.124;5.480;2023-05-10T07:49:30;17.05;;;6.50;;
76636;SDS011;65532;52.124;5.480;2023-05-10T07:51:57;12.02;;;5.57;;
76636;SDS011;65532;52.124;5.480;2023-05-10T07:54:23;13.35;;;4.88;;
76636;SDS011;65532;52.124;5.480;2023-05-10T07:56:50;15.63;;;6.55;;
76636;SDS011;65532;52.124;5.480;2023-05-10T07:59:17;18.58;;;6.18;;
76636;SDS011;65532;52.124;5.480;2023-05-10T08:01:44;18.02;;;8.77;;
76636;SDS011;65532;52.124;5.480;2023-05-10T08:04:10;14.13;;;7.43;;
76636;SDS011;65532;52.124;5.480;2023-05-10T08:06:38;12.88;;;5.97;;
76636;SDS011;65532;52.124;5.480;2023-05-10T08:09:05;12.93;;;4.88;;
76636;SDS011;65532;52.124;5.480;2023-05-10T08:11:31;12.57;;;6.03;;
76636;SDS011;65532;52.124;5.480;2023-05-10T08:14:00;14.20;;;5.50;;
76636;SDS011;65532;52.124;5.480;2023-05-10T08:16:26;12.27;;;4.90;;
76636;SDS011;65532;52.124;5.480;2023-05-10T08:18:53;13.60;;;5.80;;
76636;SDS011;65532;52.124;5.480;2023-05-10T08:21:21;15.18;;;6.13;;
76636;SDS011;65532;52.124;5.480;2023-05-10T08:23:48;13.55;;;5.07;;
76636;SDS011;65532;52.124;5.480;2023-05-10T08:26:15;9.90;;;4.00;;
76636;SDS011;65532;52.124;5.480;2023-05-10T08:28:41;12.38;;;5.75;;
76636;SDS011;65532;52.124;5.480;2023-05-10T08:31:08;10.73;;;5.05;;
76636;SDS011;65532;52.124;5.480;2023-05-10T08:33:34;11.25;;;5.85;;
76636;SDS011;65532;52.124;5.480;2023-05-10T08:36:01;12.00;;;5.10;;
76636;SDS011;65532;52.124;5.480;2023-05-10T08:38:27;14.25;;;5.63;;
76636;SDS011;65532;52.124;5.480;2023-05-10T08:40:54;11.93;;;5.65;;
76636;SDS011;65532;52.124;5.480;2023-05-10T08:43:26;11.20;;;4.65;;
76636;SDS011;65532;52.124;5.480;2023-05-10T08:45:55;15.23;;;6.30;;
76636;SDS011;65532;52.124;5.480;2023-05-10T08:48:23;12.38;;;5.68;;
76636;SDS011;65532;52.124;5.480;2023-05-10T08:50:52;13.90;;;5.45;;
76636;SDS011;65532;52.124;5.480;2023-05-10T08:53:21;13.30;;;6.32;;
76636;SDS011;65532;52.124;5.480;2023-05-10T08:55:50;16.02;;;6.72;;
76636;SDS011;65532;52.124;5.480;2023-05-10T08:58:17;11.30;;;5.30;;
76636;SDS011;65532;52.124;5.480;2023-05-10T09:00:45;14.90;;;6.90;;
76636;SDS011;65532;52.124;5.480;2023-05-10T09:03:14;12.43;;;6.40;;
76636;SDS011;65532;52.124;5.480;2023-05-10T09:05:41;13.43;;;7.15;;
76636;SDS011;65532;52.124;5.480;2023-05-10T09:08:08;19.55;;;7.45;;
76636;SDS011;65532;52.124;5.480;2023-05-10T09:10:35;12.85;;;5.57;;
76636;SDS011;65532;52.124;5.480;2023-05-10T09:13:03;13.82;;;6.72;;
76636;SDS011;65532;52.124;5.480;2023-05-10T09:15:30;12.38;;;5.10;;
76636;SDS011;65532;52.124;5.480;2023-05-10T09:17:56;12.35;;;5.75;;
76636;SDS011;65532;52.124;5.480;2023-05-10T09:20:25;13.90;;;5.47;;
76636;SDS011;65532;52.124;5.480;2023-05-10T09:22:52;12.55;;;6.43;;
76636;SDS011;65532;52.124;5.480;2023-05-10T09:25:18;11.70;;;4.43;;
76636;SDS011;65532;52.124;5.480;2023-05-10T09:27:46;11.23;;;5.55;;
76636;SDS011;65532;52.124;5.480;2023-05-10T09:30:23;8.38;;;3.03;;
76636;SDS011;65532;52.124;5.480;2023-05-10T09:32:52;9.25;;;3.88;;
76636;SDS011;65532;52.124;5.480;2023-05-10T09:35:20;7.18;;;3.13;;
76636;SDS011;65532;52.124;5.480;2023-05-10T09:37:51;9.15;;;3.40;;
76636;SDS011;65532;52.124;5.480;2023-05-10T09:40:20;9.25;;;2.85;;
76636;SDS011;65532;52.124;5.480;2023-05-10T09:42:52;7.88;;;4.03;;
76636;SDS011;65532;52.124;5.480;2023-05-10T09:45:27;8.55;;;3.50;;
76636;SDS011;65532;52.124;5.480;2023-05-10T09:47:58;9.93;;;5.97;;
76636;SDS011;65532;52.124;5.480;2023-05-10T09:50:26;6.80;;;3.20;;
76636;SDS011;65532;52.124;5.480;2023-05-10T09:52:54;6.18;;;2.47;;
76636;SDS011;65532;52.124;5.480;2023-05-10T09:55:26;10.07;;;2.95;;
76636;SDS011;65532;52.124;5.480;2023-05-10T09:58:06;5.35;;;2.92;;
76636;SDS011;65532;52.124;5.480;2023-05-10T10:00:36;5.50;;;2.00;;
76636;SDS011;65532;52.124;5.480;2023-05-10T10:03:05;5.60;;;1.52;;
76636;SDS011;65532;52.124;5.480;2023-05-10T10:05:33;6.07;;;2.55;;
76636;SDS011;65532;52.124;5.480;2023-05-10T10:08:02;3.97;;;1.27;;
76636;SDS011;65532;52.124;5.480;2023-05-10T10:10:31;4.35;;;1.45;;
76636;SDS011;65532;52.124;5.480;2023-05-10T10:12:58;4.97;;;1.70;;
76636;SDS011;65532;52.124;5.480;2023-05-10T10:15:26;5.38;;;2.15;;
76636;SDS011;65532;52.124;5.480;2023-05-10T10:17:52;5.20;;;2.10;;
76636;SDS011;65532;52.124;5.480;2023-05-10T10:20:21;5.05;;;2.25;;
76636;SDS011;65532;52.124;5.480;2023-05-10T10:22:48;5.63;;;2.00;;
76636;SDS011;65532;52.124;5.480;2023-05-10T10:25:16;7.45;;;2.25;;
76636;SDS011;65532;52.124;5.480;2023-05-10T10:35:42;6.32;;;2.55;;
76636;SDS011;65532;52.124;5.480;2023-05-10T10:38:09;6.47;;;2.90;;
76636;SDS011;65532;52.124;5.480;2023-05-10T10:40:39;5.95;;;3.13;;
76636;SDS011;65532;52.124;5.480;2023-05-10T10:48:36;6.07;;;3.15;;
76636;SDS011;65532;52.124;5.480;2023-05-10T10:51:02;7.25;;;3.17;;
76636;SDS011;65532;52.124;5.480;2023-05-10T10:53:29;5.80;;;2.42;;
76636;SDS011;65532;52.124;5.480;2023-05-10T10:56:12;7.32;;;2.33;;
76636;SDS011;65532;52.124;5.480;2023-05-10T10:58:41;7.97;;;3.50;;
76636;SDS011;65532;52.124;5.480;2023-05-10T11:01:15;7.07;;;2.42;;
76636;SDS011;65532;52.124;5.480;2023-05-10T11:06:31;7.38;;;3.70;;
76636;SDS011;65532;52.124;5.480;2023-05-10T11:08:59;6.70;;;2.90;;
76636;SDS011;65532;52.124;5.480;2023-05-10T11:11:32;7.18;;;2.17;;
76636;SDS011;65532;52.124;5.480;2023-05-10T11:14:07;5.25;;;2.53;;
76636;SDS011;65532;52.124;5.480;2023-05-10T11:16:43;8.45;;;3.35;;
76636;SDS011;65532;52.124;5.480;2023-05-10T11:19:11;7.40;;;2.65;;
76636;SDS011;65532;52.124;5.480;2023-05-10T11:21:46;8.10;;;4.05;;
76636;SDS011;65532;52.124;5.480;2023-05-10T11:24:15;8.80;;;4.15;;
76636;SDS011;65532;52.124;5.480;2023-05-10T11:26:43;8.55;;;3.47;;
76636;SDS011;65532;52.124;5.480;2023-05-10T11:29:12;6.25;;;2.15;;
76636;SDS011;65532;52.124;5.480;2023-05-10T11:31:46;7.68;;;3.50;;
76636;SDS011;65532;52.124;5.480;2023-05-10T11:34:26;7.65;;;2.13;;
76636;SDS011;65532;52.124;5.480;2023-05-10T11:36:56;5.22;;;3.35;;
76636;SDS011;65532;52.124;5.480;2023-05-10T11:39:27;6.03;;;2.30;;
76636;SDS011;65532;52.124;5.480;2023-05-10T11:41:55;6.28;;;2.75;;
76636;SDS011;65532;52.124;5.480;2023-05-10T11:44:22;5.97;;;2.47;;
76636;SDS011;65532;52.124;5.480;2023-05-10T11:46:49;7.28;;;2.80;;
76636;SDS011;65532;52.124;5.480;2023-05-10T11:49:15;6.65;;;1.83;;
76636;SDS011;65532;52.124;5.480;2023-05-10T11:51:42;7.53;;;2.97;;
76636;SDS011;65532;52.124;5.480;2023-05-10T11:54:10;5.35;;;2.80;;
76636;SDS011;65532;52.124;5.480;2023-05-10T11:56:40;7.53;;;1.90;;
76636;SDS011;65532;52.124;5.480;2023-05-10T11:59:07;4.95;;;1.92;;
76636;SDS011;65532;52.124;5.480;2023-05-10T12:01:34;4.90;;;2.35;;
76636;SDS011;65532;52.124;5.480;2023-05-10T12:04:01;6.57;;;1.88;;
76636;SDS011;65532;52.124;5.480;2023-05-10T12:06:29;7.93;;;2.28;;
76636;SDS011;65532;52.124;5.480;2023-05-10T12:08:58;5.45;;;2.85;;
76636;SDS011;65532;52.124;5.480;2023-05-10T12:11:26;4.93;;;1.63;;
76636;SDS011;65532;52.124;5.480;2023-05-10T12:13:54;10.30;;;2.38;;
76636;SDS011;65532;52.124;5.480;2023-05-10T12:16:22;5.82;;;2.80;;
76636;SDS011;65532;52.124;5.480;2023-05-10T12:18:52;6.35;;;2.58;;
76636;SDS011;65532;52.124;5.480;2023-05-10T12:21:20;7.80;;;2.85;;
76636;SDS011;65532;52.124;5.480;2023-05-10T12:23:51;5.43;;;2.38;;
76636;SDS011;65532;52.124;5.480;2023-05-10T12:26:22;7.10;;;2.65;;
76636;SDS011;65532;52.124;5.480;2023-05-10T12:28:50;6.35;;;3.45;;
76636;SDS011;65532;52.124;5.480;2023-05-10T12:31:17;5.65;;;2.50;;
76636;SDS011;65532;52.124;5.480;2023-05-10T12:33:43;5.30;;;1.52;;
76636;SDS011;65532;52.124;5.480;2023-05-10T12:36:12;3.92;;;1.60;;
76636;SDS011;65532;52.124;5.480;2023-05-10T12:38:42;4.68;;;1.50;;
76636;SDS011;65532;52.124;5.480;2023-05-10T12:41:17;6.05;;;2.25;;
76636;SDS011;65532;52.124;5.480;2023-05-10T12:43:45;2.90;;;1.55;;
76636;SDS011;65532;52.124;5.480;2023-05-10T12:46:13;2.88;;;1.10;;
76636;SDS011;65532;52.124;5.480;2023-05-10T12:48:43;2.97;;;0.80;;
76636;SDS011;65532;52.124;5.480;2023-05-10T12:51:12;3.42;;;1.13;;
76636;SDS011;65532;52.124;5.480;2023-05-10T12:53:41;5.15;;;1.70;;
76636;SDS011;65532;52.124;5.480;2023-05-10T12:58:38;3.60;;;0.70;;
76636;SDS011;65532;52.124;5.480;2023-05-10T13:01:04;3.50;;;1.50;;
76636;SDS011;65532;52.124;5.480;2023-05-10T13:03:31;3.10;;;1.48;;
76636;SDS011;65532;52.124;5.480;2023-05-10T13:05:58;3.30;;;1.13;;
76636;SDS011;65532;52.124;5.480;2023-05-10T13:08:24;5.63;;;1.70;;
76636;SDS011;65532;52.124;5.480;2023-05-10T13:10:51;3.13;;;0.90;;
76636;SDS011;65532;52.124;5.480;2023-05-10T13:13:17;3.50;;;1.08;;
76636;SDS011;65532;52.124;5.480;2023-05-10T13:15:44;3.88;;;1.17;;
76636;SDS011;65532;52.124;5.480;2023-05-10T13:18:10;5.53;;;1.58;;
76636;SDS011;65532;52.124;5.480;2023-05-10T13:20:37;3.83;;;1.00;;
76636;SDS011;65532;52.124;5.480;2023-05-10T13:23:03;5.78;;;1.02;;
76636;SDS011;65532;52.124;5.480;2023-05-10T13:25:30;3.10;;;1.38;;
76636;SDS011;65532;52.124;5.480;2023-05-10T13:27:56;5.10;;;1.70;;
76636;SDS011;65532;52.124;5.480;2023-05-10T13:30:23;5.70;;;2.03;;
76636;SDS011;65532;52.124;5.480;2023-05-10T13:32:50;3.72;;;1.50;;
76636;SDS011;65532;52.124;5.480;2023-05-10T13:35:16;5.60;;;2.22;;
76636;SDS011;65532;52.124;5.480;2023-05-10T13:37:43;6.18;;;1.73;;
76636;SDS011;65532;52.124;5.480;2023-05-10T13:40:09;6.43;;;3.08;;
76636;SDS011;65532;52.124;5.480;2023-05-10T13:42:36;6.15;;;2.42;;
76636;SDS011;65532;52.124;5.480;2023-05-10T13:45:02;6.03;;;1.40;;
76636;SDS011;65532;52.124;5.480;2023-05-10T13:47:29;6.13;;;2.90;;
76636;SDS011;65532;52.124;5.480;2023-05-10T13:49:56;5.72;;;2.28;;
76636;SDS011;65532;52.124;5.480;2023-05-10T13:52:23;7.43;;;2.17;;
76636;SDS011;65532;52.124;5.480;2023-05-10T13:54:49;6.50;;;2.63;;
76636;SDS011;65532;52.124;5.480;2023-05-10T13:57:18;8.23;;;2.88;;
76636;SDS011;65532;52.124;5.480;2023-05-10T13:59:44;6.13;;;1.33;;
76636;SDS011;65532;52.124;5.480;2023-05-10T14:02:11;5.75;;;2.45;;
76636;SDS011;65532;52.124;5.480;2023-05-10T14:04:39;4.68;;;1.00;;
76636;SDS011;65532;52.124;5.480;2023-05-10T14:07:05;4.18;;;1.10;;
76636;SDS011;65532;52.124;5.480;2023-05-10T14:09:32;5.85;;;3.72;;
76636;SDS011;65532;52.124;5.480;2023-05-10T14:11:58;4.75;;;0.90;;
76636;SDS011;65532;52.124;5.480;2023-05-10T14:14:25;6.43;;;2.35;;
76636;SDS011;65532;52.124;5.480;2023-05-10T14:16:52;8.07;;;2.97;;
76636;SDS011;65532;52.124;5.480;2023-05-10T14:19:18;6.03;;;2.05;;
76636;SDS011;65532;52.124;5.480;2023-05-10T14:21:45;6.93;;;1.42;;
76636;SDS011;65532;52.124;5.480;2023-05-10T14:24:11;4.80;;;1.20;;
76636;SDS011;65532;52.124;5.480;2023-05-10T14:26:38;6.25;;;1.50;;
76636;SDS011;65532;52.124;5.480;2023-05-10T14:29:04;6.38;;;2.60;;
76636;SDS011;65532;52.124;5.480;2023-05-10T14:31:31;5.32;;;2.42;;
76636;SDS011;65532;52.124;5.480;2023-05-10T14:33:57;5.68;;;2.17;;
76636;SDS011;65532;52.124;5.480;2023-05-10T14:36:25;5.82;;;1.48;;
76636;SDS011;65532;52.124;5.480;2023-05-10T14:38:51;5.97;;;1.88;;
76636;SDS011;65532;52.124;5.480;2023-05-10T14:41:18;5.10;;;1.80;;
76636;SDS011;65532;52.124;5.480;2023-05-10T14:43:44;6.15;;;2.75;;
76636;SDS011;65532;52.124;5.480;2023-05-10T14:46:11;6.05;;;2.35;;
76636;SDS011;65532;52.124;5.480;2023-05-10T14:48:38;10.57;;;2.72;;
76636;SDS011;65532;52.124;5.480;2023-05-10T14:51:04;7.90;;;2.72;;
76636;SDS011;65532;52.124;5.480;2023-05-10T14:53:31;6.63;;;2.13;;
76636;SDS011;65532;52.124;5.480;2023-05-10T14:55:57;8.18;;;2.75;;
76636;SDS011;65532;52.124;5.480;2023-05-10T14:58:23;7.18;;;2.30;;
76636;SDS011;65532;52.124;5.480;2023-05-10T15:00:50;8.20;;;4.68;;
76636;SDS011;65532;52.124;5.480;2023-05-10T15:03:17;7.88;;;2.75;;
76636;SDS011;65532;52.124;5.480;2023-05-10T15:05:44;9.52;;;2.70;;
76636;SDS011;65532;52.124;5.480;2023-05-10T15:08:11;8.32;;;2.42;;
76636;SDS011;65532;52.124;5.480;2023-05-10T15:10:39;8.15;;;2.75;;
76636;SDS011;65532;52.124;5.480;2023-05-10T15:13:05;7.75;;;2.95;;
76636;SDS011;65532;52.124;5.480;2023-05-10T15:15:32;9.18;;;3.90;;
76636;SDS011;65532;52.124;5.480;2023-05-10T15:17:58;9.55;;;2.95;;